Time;durP1;ratioP1;P1;durP2;ratioP2;P2;SDS_P1;SDS_P2;PMS_P1;PMS_P2;Temp;Humidity;BMP_temperature;BMP_pressure;BME280_temperature;BME280_humidity;BME280_pressure;Samples;Min_cycle;Max_cycle;Signal;HPM_P1;HPM_P2
2022/09/27 00:01:59;;;;;;;2.17;0.80;;;18.90;72.40;;;;;;5112474;28;20447;-72
2022/09/27 00:04:25;;;;;;;3.38;1.02;;;18.90;72.40;;;;;;5113739;28;20014;-71
2022/09/27 00:06:51;;;;;;;3.50;1.00;;;18.90;72.50;;;;;;5113831;28;20019;-71
2022/09/27 00:09:16;;;;;;;3.40;1.10;;;18.90;72.50;;;;;;5113349;28;20023;-72
2022/09/27 00:11:42;;;;;;;5.15;0.98;;;18.90;72.60;;;;;;5113547;28;20031;-72
2022/09/27 00:14:08;;;;;;;3.25;0.93;;;18.90;72.60;;;;;;5112444;28;20024;-72
2022/09/27 00:16:35;;;;;;;3.60;1.17;;;18.90;72.50;;;;;;5095454;28;20027;-72
2022/09/27 00:19:12;;;;;;;3.03;1.23;;;18.90;72.60;;;;;;5112256;28;20490;-72
2022/09/27 00:21:38;;;;;;;3.92;1.10;;;18.90;72.60;;;;;;5095339;28;20079;-72
2022/09/27 00:24:04;;;;;;;2.75;1.23;;;18.80;72.60;;;;;;5112465;28;20032;-72
2022/09/27 00:26:30;;;;;;;3.47;0.80;;;18.80;72.70;;;;;;5113191;28;20035;-72
2022/09/27 00:28:55;;;;;;;2.88;1.00;;;18.80;72.70;;;;;;5112196;28;20387;-72
2022/09/27 00:31:22;;;;;;;3.85;0.90;;;18.80;72.60;;;;;;5112043;28;20106;-72
2022/09/27 00:33:49;;;;;;;2.65;1.10;;;18.80;72.60;;;;;;5077729;28;20024;-72
2022/09/27 00:36:15;;;;;;;3.47;1.10;;;18.80;72.70;;;;;;5071424;28;20023;-72
2022/09/27 00:38:41;;;;;;;4.00;1.00;;;18.80;72.70;;;;;;5072665;28;20450;-72
2022/09/27 00:41:15;;;;;;;4.28;1.42;;;18.80;72.70;;;;;;5093562;28;20027;-72
2022/09/27 00:43:49;;;;;;;7.15;1.48;;;18.80;72.70;;;;;;5112886;28;20028;-72
2022/09/27 00:46:19;;;;;;;3.50;1.38;;;18.80;72.80;;;;;;5112995;28;20016;-72
2022/09/27 00:48:45;;;;;;;2.88;0.98;;;18.80;72.80;;;;;;5111974;28;20020;-72
2022/09/27 00:51:10;;;;;;;3.67;1.30;;;18.80;73.00;;;;;;5112737;28;20385;-72
2022/09/27 00:53:50;;;;;;;3.35;1.13;;;18.80;73.00;;;;;;5111719;28;20394;-72
2022/09/27 00:56:19;;;;;;;6.50;1.60;;;18.80;73.00;;;;;;5111602;28;20055;-72
2022/09/27 00:58:49;;;;;;;6.70;1.05;;;18.80;73.10;;;;;;5095029;28;20012;-72
2022/09/27 01:01:15;;;;;;;4.75;1.40;;;18.80;73.10;;;;;;5111483;28;20042;-72
2022/09/27 01:04:07;;;;;;;5.57;1.00;;;18.80;73.20;;;;;;5094726;28;20039;-72
2022/09/27 01:06:33;;;;;;;3.35;1.08;;;18.80;73.00;;;;;;5110747;28;20077;-72
2022/09/27 01:08:58;;;;;;;5.63;1.20;;;18.80;73.10;;;;;;5112862;28;20031;-72
2022/09/27 01:11:32;;;;;;;4.70;1.20;;;18.80;73.20;;;;;;5112290;28;20016;-72
2022/09/27 01:14:08;;;;;;;3.55;1.05;;;18.80;73.10;;;;;;5111669;28;20008;-72
2022/09/27 01:16:58;;;;;;;6.35;1.40;;;18.80;73.10;;;;;;5112612;28;20023;-72
2022/09/27 01:19:27;;;;;;;5.00;1.38;;;18.80;73.10;;;;;;5112506;28;20395;-72
2022/09/27 01:22:12;;;;;;;3.47;1.10;;;18.80;73.20;;;;;;5112461;28;20028;-72
2022/09/27 01:25:10;;;;;;;2.78;1.10;;;18.80;73.20;;;;;;5112301;28;20016;-72
2022/09/27 01:28:01;;;;;;;3.78;1.15;;;18.80;73.30;;;;;;5112671;28;20081;-72
2022/09/27 01:30:55;;;;;;;2.47;0.82;;;18.70;73.20;;;;;;5112396;28;20016;-72
2022/09/27 01:33:39;;;;;;;3.15;1.00;;;18.70;73.10;;;;;;5076658;28;20045;-72
2022/09/27 01:36:16;;;;;;;4.40;1.08;;;18.70;73.20;;;;;;5071891;28;20082;-72
2022/09/27 01:38:55;;;;;;;3.45;1.20;;;18.70;73.20;;;;;;5071821;28;20090;-72
2022/09/27 01:41:35;;;;;;;3.78;1.23;;;18.70;73.30;;;;;;5098225;28;20028;-72
2022/09/27 01:44:20;;;;;;;3.78;1.25;;;18.70;73.20;;;;;;5112367;28;20121;-72
2022/09/27 01:46:48;;;;;;;8.15;1.85;;;18.70;73.20;;;;;;5112591;28;20141;-71
2022/09/27 01:49:31;;;;;;;3.42;1.10;;;18.70;73.30;;;;;;5094470;28;20016;-71
2022/09/27 01:52:01;;;;;;;5.78;1.25;;;18.70;73.20;;;;;;5111216;28;20055;-71
2022/09/27 01:54:34;;;;;;;3.78;1.20;;;18.70;73.30;;;;;;5093930;28;20039;-71
2022/09/27 01:56:59;;;;;;;4.40;1.17;;;18.70;73.20;;;;;;5094522;28;20016;-71
2022/09/27 01:59:37;;;;;;;3.53;1.00;;;18.70;73.20;;;;;;5094143;28;20488;-71
2022/09/27 02:02:06;;;;;;;3.20;1.40;;;18.70;73.20;;;;;;5095329;28;20024;-71
2022/09/27 02:04:32;;;;;;;6.10;1.52;;;18.70;73.20;;;;;;5094349;28;20525;-72
2022/09/27 02:07:01;;;;;;;5.90;1.70;;;18.70;73.20;;;;;;5110915;28;20015;-72
2022/09/27 02:09:32;;;;;;;4.13;1.10;;;18.70;73.20;;;;;;5110840;28;20022;-72
2022/09/27 02:12:01;;;;;;;6.03;1.38;;;18.70;73.30;;;;;;5094790;28;20015;-72
2022/09/27 02:14:44;;;;;;;4.00;0.95;;;18.70;73.20;;;;;;5110789;28;20123;-72
2022/09/27 02:17:16;;;;;;;3.88;1.00;;;18.70;73.40;;;;;;5112819;28;20024;-72
2022/09/27 02:20:06;;;;;;;3.85;0.93;;;18.70;73.40;;;;;;5114493;28;20069;-72
2022/09/27 02:22:43;;;;;;;5.05;0.90;;;18.70;73.40;;;;;;5076983;28;20051;-72
2022/09/27 02:25:29;;;;;;;3.70;0.88;;;18.70;73.50;;;;;;5071273;28;20023;-73
2022/09/27 02:27:59;;;;;;;2.88;0.98;;;18.70;73.20;;;;;;5073320;28;20012;-73
2022/09/27 02:30:25;;;;;;;5.60;1.10;;;18.70;73.20;;;;;;5074906;28;20116;-72
2022/09/27 02:32:51;;;;;;;3.00;0.80;;;18.70;73.20;;;;;;5080007;28;20103;-72
2022/09/27 02:35:32;;;;;;;9.13;1.00;;;18.70;73.20;;;;;;5074304;28;20047;-72
2022/09/27 02:37:58;;;;;;;5.07;1.17;;;18.70;73.20;;;;;;5092225;28;20016;-72
2022/09/27 02:40:25;;;;;;;6.43;1.00;;;18.70;73.30;;;;;;5069387;28;20039;-72
2022/09/27 02:42:50;;;;;;;5.07;1.48;;;18.70;73.30;;;;;;5071290;28;20070;-72
2022/09/27 02:45:17;;;;;;;3.35;1.05;;;18.70;73.20;;;;;;5070966;28;20020;-72
2022/09/27 02:47:52;;;;;;;3.70;1.00;;;18.70;73.20;;;;;;5070931;28;20020;-72
2022/09/27 02:50:48;;;;;;;5.20;1.55;;;18.60;73.30;;;;;;5074571;28;20063;-72
2022/09/27 02:53:25;;;;;;;2.05;1.08;;;18.70;73.40;;;;;;5090541;28;20484;-72
2022/09/27 02:56:06;;;;;;;3.42;0.88;;;18.60;73.30;;;;;;5086021;28;20020;-72
2022/09/27 02:58:42;;;;;;;5.50;0.75;;;18.60;73.40;;;;;;5088322;28;20025;-72
2022/09/27 03:01:11;;;;;;;4.25;0.90;;;18.60;73.30;;;;;;5081081;28;20065;-72
2022/09/27 03:04:12;;;;;;;2.65;1.00;;;18.70;73.50;;;;;;5079453;28;20487;-72
2022/09/27 03:06:41;;;;;;;3.38;0.88;;;18.60;73.50;;;;;;5031773;28;20029;-72
2022/09/27 03:09:18;;;;;;;4.00;1.00;;;18.60;73.50;;;;;;5015747;28;20041;-72
2022/09/27 03:11:43;;;;;;;7.78;1.20;;;18.60;73.50;;;;;;5015718;28;20097;-72
2022/09/27 03:14:09;;;;;;;2.50;0.75;;;18.60;73.50;;;;;;5031786;28;20025;-72
2022/09/27 03:16:35;;;;;;;3.90;0.90;;;18.70;73.50;;;;;;5031162;28;20036;-72
2022/09/27 03:19:00;;;;;;;2.20;1.00;;;18.60;73.60;;;;;;5032106;28;20052;-72
2022/09/27 03:21:26;;;;;;;3.70;1.13;;;18.60;73.60;;;;;;5030344;28;20033;-72
2022/09/27 03:23:52;;;;;;;6.88;1.38;;;18.60;73.60;;;;;;5031808;28;20120;-72
2022/09/27 03:26:17;;;;;;;6.70;0.93;;;18.60;73.60;;;;;;5031814;28;20025;-72
2022/09/27 03:28:43;;;;;;;1.90;0.73;;;18.60;73.70;;;;;;5030053;28;20518;-72
2022/09/27 03:31:09;;;;;;;4.30;1.08;;;18.60;73.70;;;;;;5031731;28;20028;-72
2022/09/27 03:33:34;;;;;;;3.25;1.08;;;18.60;73.70;;;;;;5016787;28;20045;-72
2022/09/27 03:36:00;;;;;;;4.82;1.05;;;18.60;73.70;;;;;;5011763;28;20045;-72
2022/09/27 03:38:26;;;;;;;2.30;1.00;;;18.60;73.70;;;;;;5011608;28;20048;-72
2022/09/27 03:40:51;;;;;;;3.95;1.00;;;18.60;73.80;;;;;;5020570;28;20083;-72
2022/09/27 03:43:17;;;;;;;5.20;1.20;;;18.60;73.70;;;;;;5072022;28;20083;-72
2022/09/27 03:45:44;;;;;;;4.20;1.17;;;18.60;73.70;;;;;;5072249;28;20066;-72
2022/09/27 03:48:10;;;;;;;3.55;1.08;;;18.60;73.70;;;;;;5073620;28;20028;-72
2022/09/27 03:50:35;;;;;;;3.00;1.00;;;18.60;73.80;;;;;;5072744;28;20127;-72
2022/09/27 03:53:01;;;;;;;3.90;0.88;;;18.60;73.80;;;;;;5073364;28;20055;-72
2022/09/27 03:55:27;;;;;;;5.53;1.08;;;18.60;73.80;;;;;;5072176;28;20103;-72
2022/09/27 03:57:52;;;;;;;4.68;1.45;;;18.60;73.80;;;;;;5072223;28;20103;-72
2022/09/27 04:00:18;;;;;;;2.92;1.05;;;18.60;73.80;;;;;;5073093;28;20467;-72
2022/09/27 04:02:44;;;;;;;5.40;1.13;;;18.60;73.70;;;;;;5071997;28;20552;-72
2022/09/27 04:05:10;;;;;;;2.75;0.90;;;18.60;73.70;;;;;;5071641;28;20051;-73
2022/09/27 04:07:36;;;;;;;2.22;0.90;;;18.50;73.70;;;;;;5071723;28;20020;-72
2022/09/27 04:10:03;;;;;;;3.58;1.08;;;18.50;73.70;;;;;;5073318;28;20019;-73
2022/09/27 04:12:29;;;;;;;5.53;0.90;;;18.60;73.70;;;;;;5071618;28;20400;-72
2022/09/27 04:14:54;;;;;;;2.78;0.80;;;18.60;73.70;;;;;;5072966;28;20024;-73
2022/09/27 04:17:20;;;;;;;3.13;0.90;;;18.50;73.70;;;;;;5072935;28;20032;-72
2022/09/27 04:19:46;;;;;;;5.20;1.20;;;18.60;73.70;;;;;;5072654;28;20163;-72
2022/09/27 04:22:12;;;;;;;3.92;0.82;;;18.60;73.80;;;;;;5072694;28;20412;-72
2022/09/27 04:24:38;;;;;;;4.00;0.90;;;18.50;73.70;;;;;;5072700;28;20016;-72
2022/09/27 04:27:04;;;;;;;2.50;0.90;;;18.60;73.90;;;;;;5055038;28;20428;-72
2022/09/27 04:29:30;;;;;;;3.83;0.77;;;18.60;73.80;;;;;;5055116;28;20055;-72
2022/09/27 04:31:56;;;;;;;3.40;0.90;;;18.50;73.90;;;;;;5072529;28;20033;-73
2022/09/27 04:36:25;;;;;;;5.25;0.88;;;18.60;73.90;;;;;;5071120;28;20037;-73
2022/09/27 04:37:08;;;;;;;2.35;0.68;;;18.50;73.80;;;;;;5072425;28;20035;-72
2022/09/27 04:39:35;;;;;;;2.95;0.90;;;18.60;73.90;;;;;;5072536;28;20524;-72
2022/09/27 04:42:02;;;;;;;2.25;0.85;;;18.50;73.90;;;;;;5110104;28;20042;-72
2022/09/27 04:44:27;;;;;;;5.13;1.10;;;18.60;73.90;;;;;;5113030;28;20054;-72
2022/09/27 04:46:53;;;;;;;3.00;0.93;;;18.50;73.90;;;;;;5112808;28;20458;-72
2022/09/27 04:49:18;;;;;;;2.65;1.00;;;18.50;73.90;;;;;;5113241;28;20024;-72
2022/09/27 04:51:44;;;;;;;5.07;1.27;;;18.50;73.90;;;;;;5112632;28;20047;-72
2022/09/27 04:54:09;;;;;;;5.03;1.27;;;18.50;73.90;;;;;;5113092;28;20072;-72
2022/09/27 04:56:35;;;;;;;3.88;1.08;;;18.50;73.90;;;;;;5112829;28;20063;-72
2022/09/27 04:59:01;;;;;;;3.75;0.82;;;18.50;74.00;;;;;;5112589;28;20019;-72
2022/09/27 05:01:27;;;;;;;4.18;1.10;;;18.50;73.90;;;;;;5112747;28;20027;-72
2022/09/27 05:03:53;;;;;;;4.95;1.25;;;18.50;73.90;;;;;;5112706;28;20442;-72
2022/09/27 05:06:18;;;;;;;4.72;1.10;;;18.50;73.90;;;;;;5112637;28;20065;-72
2022/09/27 05:08:44;;;;;;;4.53;0.98;;;18.50;73.90;;;;;;5112814;28;20098;-72
2022/09/27 05:11:10;;;;;;;5.05;1.10;;;18.50;73.90;;;;;;5112654;28;20023;-72
2022/09/27 05:13:35;;;;;;;4.15;1.10;;;18.50;73.90;;;;;;5112571;28;20510;-72
2022/09/27 05:16:03;;;;;;;6.78;1.38;;;18.50;73.90;;;;;;5112484;28;20031;-72
2022/09/27 05:18:28;;;;;;;2.67;0.88;;;18.50;73.90;;;;;;5094706;28;20499;-72
2022/09/27 05:20:55;;;;;;;2.53;1.10;;;18.50;74.00;;;;;;5105869;28;20097;-72
2022/09/27 05:23:21;;;;;;;2.38;0.80;;;18.50;74.00;;;;;;5070950;28;20122;-72
2022/09/27 05:25:47;;;;;;;4.90;1.10;;;18.50;74.10;;;;;;5068526;28;20501;-72
2022/09/27 05:28:12;;;;;;;6.00;1.00;;;18.50;74.10;;;;;;5069779;28;20028;-72
2022/09/27 05:30:38;;;;;;;6.70;1.13;;;18.50;74.10;;;;;;5069184;28;20027;-73
2022/09/27 05:33:03;;;;;;;6.63;1.25;;;18.50;74.20;;;;;;5079720;28;20112;-72
2022/09/27 05:35:30;;;;;;;7.10;1.00;;;18.50;74.20;;;;;;5089348;28;20030;-73
2022/09/27 05:37:57;;;;;;;2.95;0.98;;;18.50;74.20;;;;;;5089391;28;20023;-72
2022/09/27 05:40:24;;;;;;;9.00;1.35;;;18.50;74.20;;;;;;5069368;28;20576;-72
2022/09/27 05:42:53;;;;;;;5.60;1.30;;;18.50;74.20;;;;;;5069144;28;20389;-73
2022/09/27 05:45:19;;;;;;;4.15;1.00;;;18.50;74.30;;;;;;5070059;28;20098;-73
2022/09/27 05:47:52;;;;;;;4.28;1.23;;;18.50;73.70;;;;;;5070463;28;20052;-73
2022/09/27 05:50:18;;;;;;;5.25;1.73;;;18.50;73.50;;;;;;5071703;28;20029;-72
2022/09/27 05:52:44;;;;;;;4.50;1.25;;;18.40;73.30;;;;;;5073180;28;20511;-73
2022/09/27 05:55:09;;;;;;;6.28;1.38;;;18.40;73.20;;;;;;5093451;28;20031;-72
2022/09/27 05:57:35;;;;;;;6.20;1.30;;;18.40;73.10;;;;;;5095750;28;20024;-71
2022/09/27 06:00:01;;;;;;;5.00;1.42;;;18.40;73.00;;;;;;5095679;28;20035;-71
2022/09/27 06:02:27;;;;;;;3.45;1.10;;;18.40;72.90;;;;;;5095606;28;20042;-70
2022/09/27 06:04:53;;;;;;;9.32;1.50;;;18.40;72.70;;;;;;5095675;28;20016;-70
2022/09/27 06:07:19;;;;;;;9.82;2.00;;;18.40;72.70;;;;;;5095675;28;20051;-70
2022/09/27 06:09:45;;;;;;;6.75;1.33;;;18.40;72.60;;;;;;5095443;28;20054;-71
2022/09/27 06:12:10;;;;;;;5.30;1.20;;;18.40;72.50;;;;;;5095514;28;20039;-70
2022/09/27 06:14:37;;;;;;;4.50;1.30;;;18.40;72.60;;;;;;5095148;28;20028;-70
2022/09/27 06:17:03;;;;;;;5.63;1.38;;;18.30;72.40;;;;;;5094071;28;20024;-72
2022/09/27 06:19:29;;;;;;;6.75;1.40;;;18.40;72.50;;;;;;5093177;28;20024;-71
2022/09/27 06:21:54;;;;;;;6.43;1.42;;;18.30;72.30;;;;;;5095022;28;20397;-71
2022/09/27 06:24:20;;;;;;;5.05;1.50;;;18.30;73.20;;;;;;5095438;28;20020;-71
2022/09/27 06:26:46;;;;;;;4.63;1.30;;;18.30;72.10;;;;;;5095182;28;20523;-71
2022/09/27 06:29:11;;;;;;;7.72;1.42;;;18.30;72.10;;;;;;5095049;28;20480;-71
2022/09/27 06:31:37;;;;;;;6.50;1.20;;;18.30;72.10;;;;;;5095129;28;20099;-71
2022/09/27 06:34:03;;;;;;;5.45;1.30;;;18.30;72.10;;;;;;5057982;28;20484;-71
2022/09/27 06:36:28;;;;;;;3.95;1.20;;;18.30;72.20;;;;;;5074660;28;20029;-71
2022/09/27 06:38:54;;;;;;;5.95;1.48;;;18.30;72.10;;;;;;5073698;28;20442;-72
2022/09/27 06:41:19;;;;;;;8.77;1.60;;;18.30;72.00;;;;;;5078017;28;20539;-71
2022/09/27 06:43:47;;;;;;;12.57;2.65;;;18.30;72.10;;;;;;5072516;28;20033;-71
2022/09/27 06:46:13;;;;;;;20.70;3.20;;;18.30;72.30;;;;;;5072452;28;20028;-71
2022/09/27 06:48:39;;;;;;;18.08;4.10;;;18.30;72.50;;;;;;5073875;28;20025;-71
2022/09/27 06:51:05;;;;;;;23.52;4.00;;;18.30;72.70;;;;;;5073160;28;20098;-71
2022/09/27 06:53:31;;;;;;;19.73;3.92;;;18.30;72.70;;;;;;5073587;28;20481;-71
2022/09/27 06:55:58;;;;;;;17.30;3.28;;;18.20;72.70;;;;;;5074634;28;20029;-71
2022/09/27 07:01:09;;;;;;;16.20;3.03;;;18.30;72.80;;;;;;5074377;28;20043;-71
2022/09/27 07:03:38;;;;;;;15.10;3.05;;;18.30;72.80;;;;;;5089396;28;20055;-71
2022/09/27 07:06:05;;;;;;;19.00;3.35;;;18.20;72.80;;;;;;5110872;28;20020;-71
2022/09/27 07:08:30;;;;;;;17.10;3.72;;;18.20;72.80;;;;;;5094506;28;20027;-71
2022/09/27 07:11:01;;;;;;;19.05;3.47;;;18.30;72.80;;;;;;5096828;28;20024;-71
2022/09/27 07:13:33;;;;;;;24.15;3.95;;;18.30;72.90;;;;;;5113483;28;20464;-71
2022/09/27 07:15:59;;;;;;;19.40;4.05;;;18.20;73.00;;;;;;5113500;28;20024;-71
2022/09/27 07:18:24;;;;;;;24.80;4.10;;;18.20;73.00;;;;;;5115171;28;20024;-71
2022/09/27 07:20:50;;;;;;;20.25;3.92;;;18.20;72.90;;;;;;5099569;28;20024;-71
2022/09/27 07:23:16;;;;;;;18.50;3.75;;;18.20;72.90;;;;;;5092733;28;20036;-71
2022/09/27 07:25:41;;;;;;;17.95;3.88;;;18.20;72.90;;;;;;5093040;28;20035;-71
2022/09/27 07:28:15;;;;;;;22.33;3.72;;;18.20;72.90;;;;;;5094427;28;20069;-71
2022/09/27 07:30:40;;;;;;;15.52;3.40;;;18.20;72.90;;;;;;5092910;28;20463;-71
2022/09/27 07:33:06;;;;;;;20.42;4.28;;;18.20;72.90;;;;;;5081558;28;20020;-71
2022/09/27 07:35:32;;;;;;;16.80;3.88;;;18.20;72.70;;;;;;5072659;28;20044;-71
2022/09/27 07:37:57;;;;;;;21.88;4.50;;;18.20;72.90;;;;;;5087660;28;20031;-71
2022/09/27 07:40:24;;;;;;;15.32;3.38;;;18.20;72.80;;;;;;5092608;28;20020;-71
2022/09/27 07:42:54;;;;;;;20.02;3.80;;;18.20;72.80;;;;;;5092406;28;20028;-71
2022/09/27 07:45:19;;;;;;;15.30;3.97;;;18.10;72.70;;;;;;5092651;28;20100;-71
2022/09/27 07:47:47;;;;;;;14.82;3.30;;;18.20;72.70;;;;;;5093533;28;20544;-71
2022/09/27 07:50:13;;;;;;;19.55;3.70;;;18.20;72.80;;;;;;5093660;28;20123;-71
2022/09/27 07:52:42;;;;;;;17.40;3.53;;;18.20;72.60;;;;;;5093712;28;20103;-71
2022/09/27 07:55:09;;;;;;;14.75;3.95;;;18.20;72.80;;;;;;5092451;28;20525;-71
2022/09/27 07:57:35;;;;;;;19.08;4.07;;;18.10;72.70;;;;;;5092331;28;20052;-71
2022/09/27 08:00:05;;;;;;;16.20;4.35;;;18.10;72.70;;;;;;5092289;28;20023;-71
2022/09/27 08:02:31;;;;;;;16.33;3.53;;;18.10;72.80;;;;;;5092981;28;20024;-71
2022/09/27 08:04:58;;;;;;;13.88;3.70;;;18.10;72.70;;;;;;5071865;28;20021;-71
2022/09/27 08:07:24;;;;;;;17.67;3.75;;;18.10;72.70;;;;;;5072028;28;20027;-71
2022/09/27 08:09:50;;;;;;;13.63;2.92;;;18.10;72.70;;;;;;5071814;28;20016;-71
2022/09/27 08:12:15;;;;;;;13.95;3.78;;;18.10;72.70;;;;;;5106453;28;20035;-71
2022/09/27 08:14:42;;;;;;;15.93;3.65;;;18.10;72.70;;;;;;5113440;28;20102;-71
2022/09/27 08:17:10;;;;;;;16.23;3.20;;;18.10;72.70;;;;;;5113595;28;20049;-71
2022/09/27 08:19:35;;;;;;;16.00;3.55;;;18.10;72.80;;;;;;5112264;28;20507;-71
2022/09/27 08:22:01;;;;;;;13.40;3.38;;;18.10;72.80;;;;;;5113292;28;20074;-71
2022/09/27 08:24:27;;;;;;;10.07;3.20;;;18.10;72.80;;;;;;5111955;28;20019;-71
2022/09/27 08:26:53;;;;;;;15.73;3.90;;;18.10;72.80;;;;;;5113411;28;20027;-71
2022/09/27 08:29:19;;;;;;;13.35;3.90;;;18.10;72.80;;;;;;5112047;28;20086;-71
2022/09/27 08:31:44;;;;;;;15.63;3.45;;;18.10;72.80;;;;;;5113154;28;20480;-71
2022/09/27 08:34:10;;;;;;;17.58;4.10;;;18.10;72.80;;;;;;5113046;28;20023;-71
2022/09/27 08:36:36;;;;;;;14.95;3.70;;;18.10;72.80;;;;;;5112211;28;20066;-71
2022/09/27 08:39:03;;;;;;;16.52;3.72;;;18.10;72.80;;;;;;5112799;28;20027;-71
2022/09/27 08:41:40;;;;;;;19.30;3.78;;;18.10;72.90;;;;;;5113225;28;20020;-71
2022/09/27 08:44:37;;;;;;;13.20;3.83;;;18.10;72.90;;;;;;5112916;28;20027;-71
2022/09/27 08:47:09;;;;;;;14.50;3.53;;;18.10;72.80;;;;;;5110473;28;20060;-71
2022/09/27 08:49:38;;;;;;;15.10;3.50;;;18.00;72.80;;;;;;5111924;28;20020;-71
2022/09/27 08:52:06;;;;;;;16.15;3.30;;;18.10;72.90;;;;;;5094960;28;20051;-71
2022/09/27 08:54:31;;;;;;;17.20;4.35;;;18.00;72.80;;;;;;5111423;28;20472;-71
2022/09/27 08:57:06;;;;;;;14.38;3.22;;;18.10;72.90;;;;;;5111802;28;20041;-71
2022/09/27 09:00:04;;;;;;;15.27;3.38;;;18.10;72.90;;;;;;5095929;28;20058;-70
2022/09/27 09:02:30;;;;;;;12.45;3.10;;;18.10;72.80;;;;;;5102680;28;20043;-71
2022/09/27 09:05:17;;;;;;;13.68;3.35;;;18.10;72.80;;;;;;5072169;28;20024;-71
2022/09/27 09:07:55;;;;;;;17.92;3.90;;;18.00;72.70;;;;;;5067982;28;20040;-71
2022/09/27 09:13:51;;;;;;;15.15;3.63;;;18.00;72.80;;;;;;5113135;28;20081;-71
2022/09/27 09:16:27;;;;;;;17.90;3.58;;;18.00;72.80;;;;;;5112715;28;20111;-71
2022/09/27 09:19:02;;;;;;;12.57;2.92;;;18.10;72.90;;;;;;5111453;28;20031;-71
2022/09/27 09:21:40;;;;;;;9.50;3.15;;;18.00;72.80;;;;;;5112735;28;20020;-71
2022/09/27 09:24:20;;;;;;;19.58;3.88;;;18.00;72.60;;;;;;5112205;28;20562;-71
2022/09/27 09:27:10;;;;;;;13.95;3.50;;;18.00;72.70;;;;;;5112892;28;20103;-71
2022/09/27 09:29:54;;;;;;;12.70;2.58;;;18.00;72.90;;;;;;5115964;28;20024;-71
2022/09/27 09:32:44;;;;;;;12.98;3.13;;;18.00;72.90;;;;;;5116529;28;20023;-71
2022/09/27 09:35:15;;;;;;;11.13;3.72;;;18.00;72.90;;;;;;5116538;28;20110;-71
2022/09/27 09:37:57;;;;;;;12.50;3.10;;;18.00;72.70;;;;;;5115452;28;20015;-71
2022/09/27 09:40:43;;;;;;;10.82;3.60;;;18.00;72.90;;;;;;5099058;28;20042;-71
2022/09/27 09:43:22;;;;;;;16.15;3.58;;;18.00;72.90;;;;;;5115127;28;20057;-71
2022/09/27 09:46:07;;;;;;;10.10;2.83;;;18.00;72.90;;;;;;5099197;28;20084;-71
2022/09/27 09:48:38;;;;;;;12.50;3.35;;;18.00;72.90;;;;;;5100116;28;20020;-71
2022/09/27 09:51:06;;;;;;;14.02;3.47;;;18.00;73.00;;;;;;5114986;28;20126;-71
2022/09/27 09:53:32;;;;;;;10.98;2.95;;;18.00;72.70;;;;;;5115147;28;20016;-71
2022/09/27 09:56:04;;;;;;;17.08;3.47;;;18.00;72.90;;;;;;5116248;28;20407;-71
2022/09/27 09:58:40;;;;;;;12.38;3.20;;;18.00;73.00;;;;;;5116270;28;20055;-71
2022/09/27 10:01:19;;;;;;;10.05;2.70;;;18.00;72.90;;;;;;5098226;28;20031;-71
2022/09/27 10:03:45;;;;;;;14.32;3.67;;;18.00;72.90;;;;;;5076883;28;20024;-71
2022/09/27 10:06:11;;;;;;;10.60;2.72;;;18.00;72.90;;;;;;5073990;28;20028;-71
2022/09/27 10:08:36;;;;;;;11.27;2.78;;;18.00;72.90;;;;;;5074221;28;20025;-71
2022/09/27 10:11:02;;;;;;;15.23;3.83;;;18.00;72.90;;;;;;5088233;28;20094;-71
2022/09/27 10:13:29;;;;;;;14.68;2.85;;;18.00;73.00;;;;;;5116151;28;20020;-71
2022/09/27 10:16:11;;;;;;;11.13;2.60;;;18.00;73.00;;;;;;5098016;28;20070;-71
2022/09/27 10:18:38;;;;;;;12.88;3.50;;;18.00;72.90;;;;;;5097994;28;20076;-71
2022/09/27 10:21:07;;;;;;;13.50;3.55;;;18.00;72.80;;;;;;5114431;28;20032;-71
2022/09/27 10:23:33;;;;;;;11.52;3.30;;;18.00;72.90;;;;;;5114677;28;20024;-71
2022/09/27 10:26:00;;;;;;;12.32;2.97;;;18.00;72.90;;;;;;5114390;28;20487;-71
2022/09/27 10:28:31;;;;;;;11.32;3.15;;;18.00;73.00;;;;;;5097717;28;20387;-71
2022/09/27 10:31:00;;;;;;;12.70;2.97;;;18.00;72.90;;;;;;5114545;28;20032;-71
2022/09/27 10:33:26;;;;;;;13.82;3.13;;;17.90;73.00;;;;;;5098035;28;20023;-71
2022/09/27 10:35:52;;;;;;;11.63;2.90;;;17.90;72.80;;;;;;5115309;28;20023;-71
2022/09/27 10:38:20;;;;;;;14.07;3.30;;;17.90;73.00;;;;;;5114090;28;20026;-71
2022/09/27 10:40:45;;;;;;;10.90;3.63;;;17.90;72.90;;;;;;5115436;28;20051;-71
2022/09/27 10:43:23;;;;;;;9.50;2.70;;;17.90;72.90;;;;;;5097015;28;20055;-71
2022/09/27 10:45:49;;;;;;;12.25;3.38;;;17.90;73.00;;;;;;5115298;28;20055;-71
2022/09/27 10:48:19;;;;;;;11.90;3.03;;;17.90;73.00;;;;;;5097144;28;20049;-71
2022/09/27 10:50:59;;;;;;;12.68;3.17;;;17.90;72.70;;;;;;5113877;28;20067;-71
2022/09/27 10:53:25;;;;;;;11.95;3.20;;;17.90;72.90;;;;;;5097604;28;20020;-71
2022/09/27 10:55:51;;;;;;;13.18;2.85;;;17.90;73.00;;;;;;5097071;28;20388;-71
2022/09/27 10:58:35;;;;;;;16.70;2.88;;;17.90;73.00;;;;;;5113908;28;20028;-71
2022/09/27 11:01:03;;;;;;;11.65;3.03;;;17.90;73.00;;;;;;5096974;28;20027;-71
2022/09/27 11:03:30;;;;;;;7.90;3.13;;;18.00;73.00;;;;;;5080322;28;20067;-71
2022/09/27 11:05:58;;;;;;;12.57;3.40;;;17.90;73.00;;;;;;5072912;28;20024;-71
2022/09/27 11:08:29;;;;;;;11.30;2.78;;;17.90;73.00;;;;;;5073033;28;20017;-71
2022/09/27 11:11:13;;;;;;;9.82;2.65;;;17.90;72.70;;;;;;5085729;28;20547;-71
2022/09/27 11:13:39;;;;;;;8.82;2.88;;;17.90;72.90;;;;;;5114796;28;20387;-71
2022/09/27 11:16:18;;;;;;;11.98;3.05;;;17.90;73.00;;;;;;5114756;28;20031;-71
2022/09/27 11:19:16;;;;;;;11.77;2.92;;;17.90;72.90;;;;;;5097316;28;20027;-71
2022/09/27 11:21:51;;;;;;;14.70;2.83;;;17.90;73.00;;;;;;5114813;28;20028;-71
2022/09/27 11:24:19;;;;;;;10.38;2.60;;;17.90;72.80;;;;;;5114559;28;20449;-71
2022/09/27 11:26:49;;;;;;;10.38;2.45;;;17.90;73.00;;;;;;5114462;28;20111;-71
2022/09/27 11:29:20;;;;;;;7.93;2.17;;;17.90;72.80;;;;;;5113322;28;20023;-71
2022/09/27 11:32:24;;;;;;;11.47;3.00;;;17.90;73.00;;;;;;5113418;28;20016;-71
2022/09/27 11:35:05;;;;;;;9.82;2.70;;;17.90;72.90;;;;;;5031579;28;20040;-71
2022/09/27 11:38:17;;;;;;;13.57;2.70;;;17.90;73.00;;;;;;5015457;28;20026;-71
2022/09/27 11:41:01;;;;;;;11.17;2.47;;;17.90;73.00;;;;;;4972540;28;20406;-71
2022/09/27 11:43:42;;;;;;;11.68;2.85;;;17.90;73.00;;;;;;4957966;28;20027;-71
2022/09/27 11:46:26;;;;;;;10.38;3.05;;;17.90;73.10;;;;;;4972654;28;20093;-71
2022/09/27 11:48:55;;;;;;;9.55;2.40;;;17.90;73.10;;;;;;4972405;28;20481;-71
2022/09/27 11:51:30;;;;;;;7.47;2.45;;;17.90;73.00;;;;;;4972171;28;20582;-71
2022/09/27 11:54:01;;;;;;;9.90;2.70;;;17.90;73.10;;;;;;4972737;28;20035;-71
2022/09/27 11:56:37;;;;;;;7.35;2.33;;;17.90;73.10;;;;;;4972309;28;20447;-72
2022/09/27 11:59:09;;;;;;;11.70;2.90;;;17.90;73.10;;;;;;4957133;28;20041;-71
2022/09/27 12:01:53;;;;;;;10.23;2.60;;;17.90;73.00;;;;;;4972406;28;20031;-71
2022/09/27 12:04:43;;;;;;;9.50;2.65;;;17.90;73.10;;;;;;4943093;28;20288;-71
2022/09/27 12:07:18;;;;;;;9.38;2.53;;;17.90;73.00;;;;;;5014539;28;20033;-71
2022/09/27 12:09:47;;;;;;;4.70;1.90;;;17.90;73.10;;;;;;5014535;28;20033;-71
2022/09/27 12:12:24;;;;;;;11.05;2.80;;;17.90;73.10;;;;;;5079753;28;20027;-71
2022/09/27 12:15:14;;;;;;;7.40;2.55;;;17.90;73.10;;;;;;5112649;28;20019;-71
2022/09/27 12:17:41;;;;;;;8.23;2.47;;;17.90;73.10;;;;;;5098789;28;20042;-71
2022/09/27 12:20:18;;;;;;;8.32;2.75;;;17.90;73.20;;;;;;5095600;28;20019;-71
2022/09/27 12:22:59;;;;;;;7.45;2.42;;;17.90;74.10;;;;;;5095729;28;20035;-71
2022/09/27 12:25:28;;;;;;;10.77;2.85;;;17.90;73.10;;;;;;5096808;28;20019;-71
2022/09/27 12:28:00;;;;;;;7.95;2.83;;;17.90;73.10;;;;;;5095734;28;20019;-71
2022/09/27 12:30:26;;;;;;;7.00;2.53;;;17.90;73.10;;;;;;5112275;28;20015;-71
2022/09/27 12:33:01;;;;;;;9.82;2.38;;;17.90;73.10;;;;;;5095122;28;20372;-71
2022/09/27 12:35:28;;;;;;;7.68;2.40;;;17.90;73.10;;;;;;5095876;28;20027;-71
2022/09/27 12:38:46;;;;;;;12.50;2.45;;;17.90;73.10;;;;;;5095310;28;20384;-71
2022/09/27 12:41:14;;;;;;;8.80;2.22;;;17.90;73.10;;;;;;5029796;28;20107;-71
2022/09/27 12:43:44;;;;;;;9.20;2.30;;;17.90;73.20;;;;;;5013851;28;20064;-71
2022/09/27 12:46:25;;;;;;;8.63;2.72;;;17.90;73.20;;;;;;5014064;28;20026;-71
2022/09/27 12:49:15;;;;;;;8.82;2.08;;;17.90;73.20;;;;;;5030746;28;20529;-71
2022/09/27 12:51:51;;;;;;;9.65;2.92;;;17.90;73.20;;;;;;5030200;28;20050;-71
2022/09/27 12:54:25;;;;;;;6.75;2.25;;;17.90;73.30;;;;;;5030515;28;20112;-71
2022/09/27 12:57:29;;;;;;;9.30;2.25;;;17.90;73.20;;;;;;5030308;28;20057;-71
2022/09/27 13:00:04;;;;;;;7.57;2.28;;;17.90;73.20;;;;;;5013554;28;20056;-71
2022/09/27 13:02:45;;;;;;;7.00;2.15;;;17.90;73.30;;;;;;5012222;28;20034;-71
2022/09/27 13:05:21;;;;;;;8.95;2.88;;;17.90;73.40;;;;;;4990806;28;20443;-71
2022/09/27 13:08:05;;;;;;;7.68;2.25;;;17.90;73.40;;;;;;4974813;28;20085;-71
2022/09/27 13:11:05;;;;;;;6.88;1.90;;;17.90;74.40;;;;;;4994789;28;20042;-71